createdAt,value
2023-04-13T03:47:16.592Z,8.80
2023-04-13T03:49:43.507Z,8.80
2023-04-13T03:52:10.746Z,8.70
2023-04-13T03:54:38.070Z,8.80
2023-04-13T03:57:05.085Z,8.90
2023-04-13T03:59:32.031Z,8.80
2023-04-13T04:01:58.973Z,8.80
2023-04-13T04:04:25.967Z,8.90
2023-04-13T04:06:52.919Z,8.80
2023-04-13T04:09:19.842Z,8.70
2023-04-13T04:11:46.779Z,8.80
2023-04-13T04:14:13.689Z,8.90
2023-04-13T04:16:40.737Z,9.00
2023-04-13T04:19:07.790Z,9.10
2023-04-13T04:21:34.836Z,9.00
2023-04-13T04:24:02.282Z,8.90
2023-04-13T04:26:30.171Z,9.00
2023-04-13T04:29:02.649Z,9.00
2023-04-13T04:31:36.812Z,8.90
2023-04-13T04:34:04.635Z,8.80
2023-04-13T04:36:31.666Z,8.70
2023-04-13T04:39:02.448Z,8.70
2023-04-13T04:41:31.424Z,8.70
2023-04-13T04:44:02.653Z,8.80
2023-04-13T04:46:29.907Z,8.70
2023-04-13T04:49:00.794Z,8.70
2023-04-13T04:51:28.672Z,8.60
2023-04-13T04:53:57.935Z,8.60
2023-04-13T04:56:25.179Z,8.60
2023-04-13T04:58:52.679Z,8.60
2023-04-13T05:01:22.739Z,8.60
2023-04-13T05:03:49.860Z,8.70
2023-04-13T05:06:16.757Z,8.80
2023-04-13T05:08:44.785Z,8.80
2023-04-13T05:11:11.725Z,8.80
2023-04-13T05:13:38.680Z,8.70
2023-04-13T05:16:05.895Z,8.80
2023-04-13T05:18:42.810Z,8.80
2023-04-13T05:21:09.700Z,8.80
2023-04-13T05:23:36.642Z,8.80
2023-04-13T05:26:03.590Z,8.80
2023-04-13T05:28:30.575Z,8.60
2023-04-13T05:31:01.696Z,8.80
2023-04-13T05:33:29.322Z,8.90
2023-04-13T05:35:59.142Z,8.90
2023-04-13T05:38:26.062Z,9.00
2023-04-13T05:40:53.623Z,9.10
2023-04-13T05:43:22.556Z,9.20
2023-04-13T05:45:50.797Z,9.20
2023-04-13T05:48:17.720Z,9.10
2023-04-13T05:50:44.627Z,9.00
2023-04-13T05:53:11.528Z,8.90
2023-04-13T05:55:40.156Z,9.00
2023-04-13T05:58:08.679Z,9.10
2023-04-13T06:00:35.659Z,9.00
2023-04-13T06:03:03.153Z,9.00
2023-04-13T06:05:31.818Z,9.00
2023-04-13T06:07:59.627Z,8.80
2023-04-13T06:10:26.829Z,8.80
2023-04-13T06:12:54.190Z,8.80
2023-04-13T06:15:21.643Z,8.90
2023-04-13T06:17:50.891Z,9.00
2023-04-13T06:20:17.845Z,9.00
2023-04-13T06:22:44.775Z,9.10
2023-04-13T06:25:12.444Z,9.10
2023-04-13T06:27:39.531Z,9.10
2023-04-13T06:30:07.201Z,9.20
2023-04-13T06:32:34.124Z,9.20
2023-04-13T06:35:01.097Z,9.20
2023-04-13T06:37:28.727Z,9.10
2023-04-13T06:39:56.790Z,9.20
2023-04-13T06:42:23.857Z,9.30
2023-04-13T06:44:51.073Z,9.40
2023-04-13T06:47:17.967Z,9.30
2023-04-13T06:49:44.914Z,9.30
2023-04-13T06:52:11.814Z,9.30
2023-04-13T06:54:38.775Z,9.30
2023-04-13T06:57:05.745Z,9.30
2023-04-13T06:59:33.086Z,9.40
2023-04-13T07:02:00.243Z,9.50
2023-04-13T07:04:29.706Z,9.40
2023-04-13T07:06:58.516Z,9.20
2023-04-13T07:09:25.690Z,9.30
2023-04-13T07:11:52.574Z,9.40
2023-04-13T07:14:19.454Z,9.40
2023-04-13T07:16:46.357Z,9.40
2023-04-13T07:19:13.431Z,9.40
2023-04-13T07:21:40.471Z,9.30
2023-04-13T07:24:07.515Z,9.30
2023-04-13T07:26:34.437Z,9.30
2023-04-13T07:29:01.489Z,9.40
2023-04-13T07:31:28.659Z,9.30
2023-04-13T07:33:55.851Z,9.40
2023-04-13T07:36:23.494Z,9.50
2023-04-13T07:38:50.416Z,9.50
2023-04-13T07:41:21.990Z,9.50
2023-04-13T07:43:48.946Z,9.60
2023-04-13T07:46:16.246Z,9.50
2023-04-13T07:48:44.550Z,9.50
2023-04-13T07:51:18.225Z,9.60
2023-04-13T07:53:45.157Z,9.60
2023-04-13T07:56:12.141Z,9.70
2023-04-13T07:58:39.133Z,9.70
2023-04-13T08:01:06.406Z,9.80
2023-04-13T08:03:35.320Z,9.80
2023-04-13T08:06:06.240Z,9.80
2023-04-13T08:08:33.499Z,9.90
2023-04-13T08:11:00.438Z,10.10
2023-04-13T08:13:28.201Z,10.10
2023-04-13T08:15:57.929Z,10.10
2023-04-13T08:18:26.733Z,10.20
2023-04-13T08:20:54.923Z,10.20
2023-04-13T08:23:22.387Z,10.20
2023-04-13T08:25:49.473Z,10.20
2023-04-13T08:28:16.473Z,10.30
2023-04-13T08:30:43.612Z,10.20
2023-04-13T08:33:10.572Z,10.20
2023-04-13T08:35:39.351Z,10.20
2023-04-13T08:38:09.263Z,10.30
2023-04-13T08:40:39.683Z,10.40
2023-04-13T08:43:07.235Z,10.40
2023-04-13T08:45:34.374Z,10.50
2023-04-13T08:48:01.925Z,10.40
2023-04-13T08:50:29.084Z,10.30
2023-04-13T08:52:56.207Z,10.30
2023-04-13T08:55:23.134Z,10.20
2023-04-13T08:57:51.617Z,10.20
2023-04-13T09:00:19.426Z,10.20
2023-04-13T09:03:00.517Z,10.20
2023-04-13T09:05:31.549Z,10.20
2023-04-13T09:08:01.610Z,10.30
2023-04-13T09:10:28.679Z,10.40
2023-04-13T09:12:55.984Z,10.60
2023-04-13T09:15:23.123Z,10.60
2023-04-13T09:17:50.493Z,10.60
2023-04-13T09:20:22.120Z,10.70
2023-04-13T09:22:52.420Z,10.80
2023-04-13T09:25:29.266Z,10.80
2023-04-13T09:27:56.723Z,10.80
2023-04-13T09:30:24.575Z,10.70
2023-04-13T09:33:04.836Z,10.70
2023-04-13T09:35:32.356Z,10.70
2023-04-13T09:37:59.969Z,10.50
2023-04-13T09:40:27.864Z,10.60
2023-04-13T09:42:59.208Z,10.60
2023-04-13T09:45:38.862Z,10.70
2023-04-13T09:48:15.525Z,10.60
2023-04-13T09:50:42.486Z,10.70
2023-04-13T09:53:12.353Z,10.80
2023-04-13T09:55:39.534Z,10.90
2023-04-13T09:58:10.257Z,10.90
2023-04-13T10:00:38.811Z,11.00
2023-04-13T10:03:06.564Z,10.90
2023-04-13T10:05:39.271Z,11.00
2023-04-13T10:08:12.285Z,11.00
2023-04-13T10:10:42.199Z,11.10
2023-04-13T10:13:21.635Z,11.10
2023-04-13T10:16:04.304Z,11.10
2023-04-13T10:18:37.287Z,11.10
2023-04-13T10:21:05.191Z,11.10
2023-04-13T10:23:33.484Z,11.10
2023-04-13T10:26:03.709Z,11.10
2023-04-13T10:28:41.477Z,11.00
2023-04-13T10:31:08.839Z,11.00
2023-04-13T10:33:46.360Z,10.90
2023-04-13T10:36:13.262Z,11.00
2023-04-13T10:38:43.632Z,11.10
2023-04-13T10:41:10.624Z,11.10
2023-04-13T10:43:37.550Z,11.10
2023-04-13T10:46:05.425Z,10.90
2023-04-13T10:48:32.337Z,10.80
2023-04-13T10:50:59.711Z,10.60
2023-04-13T10:53:30.324Z,10.60
2023-04-13T10:55:57.843Z,10.60
2023-04-13T10:58:26.445Z,10.60
2023-04-13T11:00:54.760Z,10.60
2023-04-13T11:03:22.153Z,10.60
2023-04-13T11:05:57.610Z,10.90
2023-04-13T11:08:24.901Z,10.80
2023-04-13T11:10:55.344Z,10.80
2023-04-13T11:13:25.225Z,11.00
2023-04-13T11:15:59.978Z,11.10
2023-04-13T11:18:27.504Z,11.20
2023-04-13T11:20:54.621Z,11.30
2023-04-13T11:23:24.013Z,11.40
2023-04-13T11:25:55.914Z,11.50
2023-04-13T11:28:23.244Z,11.60
2023-04-13T11:30:56.464Z,11.60
2023-04-13T11:33:26.864Z,11.40
2023-04-13T11:35:54.877Z,11.50
2023-04-13T11:38:21.849Z,11.60
2023-04-13T11:40:49.739Z,11.70
2023-04-13T11:43:19.474Z,11.80
2023-04-13T11:45:49.146Z,11.90
2023-04-13T11:48:17.425Z,11.90
2023-04-13T11:50:44.369Z,12.00
2023-04-13T11:53:11.443Z,12.00
2023-04-13T11:58:10.119Z,12.10
2023-04-13T12:00:38.676Z,12.10
2023-04-13T12:03:24.464Z,12.20
2023-04-13T12:06:02.300Z,12.30
2023-04-13T12:08:30.529Z,12.40
2023-04-13T12:11:24.944Z,12.30
2023-04-13T12:14:05.609Z,12.30
2023-04-13T12:17:03.184Z,12.40
2023-04-13T12:19:27.846Z,12.60
2023-04-13T12:21:56.819Z,12.50
2023-04-13T12:24:32.819Z,12.60
2023-04-13T12:29:37.590Z,12.70
2023-04-13T12:32:08.991Z,12.70
2023-04-13T12:34:36.489Z,12.80
2023-04-13T12:37:04.178Z,12.80
2023-04-13T12:39:31.137Z,12.90
2023-04-13T12:41:58.031Z,12.90
2023-04-13T12:44:25.016Z,12.90
2023-04-13T12:46:51.977Z,12.70
2023-04-13T12:49:18.897Z,12.60
2023-04-13T12:51:46.073Z,12.40
2023-04-13T12:54:17.845Z,12.30
2023-04-13T12:56:44.756Z,12.30
2023-04-13T12:59:11.667Z,12.40
2023-04-13T13:01:38.732Z,12.40
2023-04-13T13:04:06.118Z,12.50
2023-04-13T13:06:34.258Z,12.50
2023-04-13T13:09:01.426Z,12.50
2023-04-13T13:11:28.550Z,12.40
2023-04-13T13:13:55.794Z,12.50
2023-04-13T13:16:22.812Z,12.60
2023-04-13T13:19:00.837Z,12.70
2023-04-13T13:21:27.977Z,12.90
2023-04-13T13:23:54.999Z,13.10
2023-04-13T13:26:24.568Z,13.00
2023-04-13T13:28:54.298Z,13.00
2023-04-13T13:31:21.334Z,13.10
2023-04-13T13:33:48.370Z,13.20
2023-04-13T13:36:15.513Z,13.30
2023-04-13T13:38:43.193Z,13.30
2023-04-13T13:41:10.415Z,13.20
2023-04-13T13:43:37.466Z,13.20
2023-04-13T13:46:05.706Z,13.20
2023-04-13T13:48:32.807Z,13.20
2023-04-13T13:51:00.285Z,13.20
2023-04-13T13:53:27.354Z,13.20
2023-04-13T13:55:55.385Z,13.20
2023-04-13T13:58:22.462Z,13.20
2023-04-13T14:00:50.414Z,13.30
2023-04-13T14:03:17.523Z,13.00
2023-04-13T14:05:44.784Z,12.90
2023-04-13T14:08:11.857Z,12.80
2023-04-13T14:10:39.093Z,12.70
2023-04-13T14:13:06.028Z,12.40
2023-04-13T14:15:33.033Z,12.10
2023-04-13T14:18:09.155Z,11.70
2023-04-13T14:20:38.936Z,11.30
2023-04-13T14:23:06.459Z,10.80
2023-04-13T14:25:33.440Z,10.60
2023-04-13T14:28:00.916Z,10.30
2023-04-13T14:30:28.579Z,10.10
2023-04-13T14:32:56.594Z,9.80
2023-04-13T14:35:24.022Z,9.60
2023-04-13T14:37:51.321Z,9.50
2023-04-13T14:40:21.835Z,9.40
2023-04-13T14:42:50.869Z,9.20
2023-04-13T14:45:18.404Z,9.30
2023-04-13T14:47:45.491Z,9.10
2023-04-13T14:50:12.669Z,9.10
2023-04-13T14:52:42.972Z,9.00
2023-04-13T14:55:10.408Z,9.00
2023-04-13T14:57:37.977Z,9.00
2023-04-13T15:00:08.457Z,9.00
2023-04-13T15:02:37.107Z,9.10
2023-04-13T15:05:06.586Z,9.10
2023-04-13T15:07:33.735Z,9.20
2023-04-13T15:10:04.242Z,9.20
2023-04-13T15:12:32.174Z,9.30
2023-04-13T15:14:59.140Z,9.40
2023-04-13T15:17:26.478Z,9.40
2023-04-13T15:19:53.423Z,9.50
2023-04-13T15:22:20.411Z,9.60
2023-04-13T15:24:47.466Z,9.70
2023-04-13T15:27:14.469Z,9.80
2023-04-13T15:29:41.615Z,9.90
2023-04-13T15:32:08.525Z,10.00
2023-04-13T15:34:35.741Z,10.10
2023-04-13T15:37:02.726Z,10.10
2023-04-13T15:39:29.676Z,10.20
2023-04-13T15:41:57.731Z,10.20
2023-04-13T15:44:24.822Z,10.20
2023-04-13T15:46:51.768Z,10.20
2023-04-13T15:49:18.719Z,10.30
2023-04-13T15:51:45.636Z,10.20
2023-04-13T15:54:12.511Z,10.20
2023-04-13T15:56:39.442Z,10.30
2023-04-13T15:59:06.747Z,10.30
2023-04-13T16:01:49.814Z,10.30
2023-04-13T16:04:17.157Z,10.30
2023-04-13T16:06:44.183Z,10.30
2023-04-13T16:09:11.164Z,10.30
2023-04-13T16:11:42.102Z,10.40
2023-04-13T16:14:09.133Z,10.40
2023-04-13T16:16:46.592Z,10.40
2023-04-13T16:19:13.892Z,10.50
2023-04-13T16:21:43.511Z,10.50
2023-04-13T16:24:10.710Z,10.50
2023-04-13T16:26:38.217Z,10.50
2023-04-13T16:29:05.275Z,10.50
2023-04-13T16:31:32.434Z,10.50
2023-04-13T16:33:59.452Z,10.60
2023-04-13T16:36:27.139Z,10.50
2023-04-13T16:38:54.153Z,10.50
2023-04-13T16:41:21.143Z,10.60
2023-04-13T16:43:48.139Z,10.60
2023-04-13T16:46:15.291Z,10.60
2023-04-13T16:48:42.232Z,10.60
2023-04-13T16:51:09.168Z,10.60
2023-04-13T16:53:36.278Z,10.70
2023-04-13T16:56:03.303Z,10.60
2023-04-13T16:58:30.519Z,10.60
2023-04-13T17:00:57.487Z,10.60
2023-04-13T17:03:24.729Z,10.60
2023-04-13T17:05:52.044Z,10.70
2023-04-13T17:08:19.005Z,10.70
2023-04-13T17:10:46.162Z,10.70
2023-04-13T17:13:13.164Z,10.80
2023-04-13T17:15:40.065Z,10.70
2023-04-13T17:18:07.061Z,10.70
2023-04-13T17:20:34.801Z,10.60
2023-04-13T17:23:01.751Z,10.40
2023-04-13T17:25:28.729Z,10.20
2023-04-13T17:27:55.703Z,10.10
2023-04-13T17:30:22.713Z,9.90
2023-04-13T17:32:49.839Z,9.70
2023-04-13T17:35:16.856Z,9.60
2023-04-13T17:37:43.742Z,9.40
2023-04-13T17:40:10.944Z,9.20
2023-04-13T17:42:37.871Z,9.10
2023-04-13T17:45:05.942Z,9.10
2023-04-13T17:47:32.870Z,9.00
2023-04-13T17:50:00.067Z,8.90
2023-04-13T17:52:27.038Z,9.00
2023-04-13T17:54:54.081Z,9.00
2023-04-13T17:57:21.052Z,9.10
2023-04-13T17:59:47.964Z,9.20
2023-04-13T18:02:14.994Z,9.30
2023-04-13T18:04:41.983Z,9.30
2023-04-13T18:07:08.912Z,9.40
2023-04-13T18:09:35.817Z,9.40
2023-04-13T18:12:03.038Z,9.50
2023-04-13T18:14:29.940Z,9.50
2023-04-13T18:16:56.975Z,9.50
2023-04-13T18:19:24.554Z,9.50
2023-04-13T18:21:51.740Z,9.50
2023-04-13T18:24:18.638Z,9.50
2023-04-13T18:26:45.589Z,9.60
2023-04-13T18:29:13.945Z,9.60
2023-04-13T18:31:41.012Z,9.50
2023-04-13T18:34:10.402Z,9.50
2023-04-13T18:36:37.334Z,9.60
2023-04-13T18:39:04.330Z,9.60
2023-04-13T18:41:31.590Z,9.60
2023-04-13T18:43:58.822Z,9.70
2023-04-13T18:46:28.857Z,9.70
2023-04-13T18:48:55.937Z,9.70
2023-04-13T18:51:22.939Z,9.60
2023-04-13T18:53:50.086Z,9.70
2023-04-13T18:56:17.096Z,9.60
2023-04-13T18:58:44.832Z,9.60
2023-04-13T19:01:15.533Z,9.60
2023-04-13T19:03:42.713Z,9.50
2023-04-13T19:06:10.923Z,9.40
2023-04-13T19:08:38.227Z,9.30
2023-04-13T19:11:05.297Z,9.30
2023-04-13T19:13:32.208Z,9.30
2023-04-13T19:16:04.363Z,9.20
2023-04-13T19:18:31.537Z,9.10
2023-04-13T19:21:00.027Z,9.10
2023-04-13T19:23:27.167Z,9.00
2023-04-13T19:25:54.364Z,9.00
2023-04-13T19:28:21.258Z,9.00
2023-04-13T19:30:48.249Z,9.00
2023-04-13T19:33:15.209Z,9.00
2023-04-13T19:35:42.358Z,9.00
2023-04-13T19:38:09.675Z,9.00
2023-04-13T19:40:36.838Z,9.00
2023-04-13T19:43:03.713Z,9.10
2023-04-13T19:45:30.965Z,9.10
2023-04-13T19:47:58.030Z,9.20
2023-04-13T19:50:25.005Z,9.20
2023-04-13T19:52:52.987Z,9.20
2023-04-13T19:55:20.544Z,9.30
2023-04-13T19:57:47.966Z,9.30
2023-04-13T20:00:17.675Z,9.30
2023-04-13T20:02:46.903Z,9.40
2023-04-13T20:05:14.395Z,9.30
2023-04-13T20:07:41.596Z,9.20
2023-04-13T20:10:11.114Z,9.20
2023-04-13T20:12:38.530Z,9.20
2023-04-13T20:15:06.215Z,9.10
2023-04-13T20:17:33.214Z,9.10
2023-04-13T20:20:00.298Z,9.10
2023-04-13T20:22:27.339Z,9.10
2023-04-13T20:24:54.415Z,9.10
2023-04-13T20:27:22.608Z,9.20
2023-04-13T20:29:51.124Z,9.20
2023-04-13T20:32:18.130Z,9.20
2023-04-13T20:34:45.194Z,9.20
2023-04-13T20:37:14.304Z,9.20
2023-04-13T20:39:49.796Z,9.20
2023-04-13T20:42:18.134Z,9.10
2023-04-13T20:44:45.855Z,9.10
2023-04-13T20:47:16.034Z,9.10
2023-04-13T20:49:47.032Z,9.10
2023-04-13T20:52:14.121Z,9.10
2023-04-13T20:54:41.422Z,9.10
2023-04-13T20:57:09.242Z,9.10
2023-04-13T20:59:37.388Z,9.10
2023-04-13T21:02:04.861Z,9.10
2023-04-13T21:04:31.921Z,9.10
2023-04-13T21:07:02.120Z,9.10
2023-04-13T21:09:29.505Z,9.10
2023-04-13T21:11:56.957Z,9.00
2023-04-13T21:14:24.946Z,8.90
2023-04-13T21:16:52.498Z,8.80
2023-04-13T21:19:19.611Z,8.80
2023-04-13T21:21:46.648Z,8.70
2023-04-13T21:24:13.632Z,8.70
2023-04-13T21:26:40.710Z,8.70
2023-04-13T21:29:09.031Z,8.70
2023-04-13T21:31:36.281Z,8.70
2023-04-13T21:34:06.203Z,8.70
2023-04-13T21:39:03.529Z,8.50
2023-04-13T21:41:30.481Z,8.50
2023-04-13T21:43:57.527Z,8.50
2023-04-13T21:46:25.147Z,8.40
2023-04-13T21:48:52.151Z,8.40
2023-04-13T21:51:19.047Z,8.50
2023-04-13T21:53:46.030Z,8.50
2023-04-13T21:56:12.938Z,8.60
2023-04-13T21:58:40.879Z,8.60
2023-04-13T22:01:08.286Z,8.60
2023-04-13T22:03:38.843Z,8.60
2023-04-13T22:06:09.826Z,8.60
2023-04-13T22:08:37.066Z,8.70
2023-04-13T22:11:04.220Z,8.70
2023-04-13T22:13:31.306Z,8.70
2023-04-13T22:15:58.276Z,8.80
2023-04-13T22:18:26.433Z,8.80
2023-04-13T22:20:53.449Z,8.80
2023-04-13T22:23:20.383Z,8.80
2023-04-13T22:25:51.127Z,8.80
2023-04-13T22:28:18.070Z,8.90
2023-04-13T22:30:45.044Z,8.90
2023-04-13T22:33:11.916Z,8.90
2023-04-13T22:35:38.822Z,8.90
2023-04-13T22:38:05.983Z,8.90
2023-04-13T22:40:32.897Z,8.90
2023-04-13T22:42:59.877Z,8.90
2023-04-13T22:45:26.816Z,8.90
2023-04-13T22:47:53.858Z,8.90
2023-04-13T22:50:21.295Z,8.80
2023-04-13T22:52:48.302Z,8.80
2023-04-13T22:55:17.904Z,8.80
2023-04-13T22:57:45.397Z,8.80
